Weather observations for the past three days for
Bellaire, Antrim County Airport
Metric (Imperial)
Date Time (edt) Wind (kph) Vis. (km) Weather Sky Cond. Temperature (ºC) Relative Humidity Wind Chill (°C) Heat Index (°C) Pressure Precipitation (cm)
Air Dwpt 6 hour altimeter (cm) sea level (mb) 1 hr 3 hr 6 hr
Max. Min.
06 12:15 N 7 16.09 Partly Cloudy SCT045 23.7 11.8 47% 76.66 0.0
06 11:55 Calm 16.09 Fair CLR 23.4 11.9 49% 76.66 0.0
06 11:35 N 7 16.09 Fair CLR 22.7 12.2 52% 76.66 0.0
06 11:15 Calm 16.09 Fair CLR 22.1 13 56% 76.66 0.0
06 10:55 Calm 16.09 Fair CLR 21 12.5 58% 76.66 0.0
06 10:35 Calm 16.09 Fair CLR 20 12 60% 76.66 0.0
06 10:15 Calm 16.09 Fair CLR 18.6 12.2 67% 76.66 0.0
06 09:55 Calm 16.09 Fair CLR 17.1 12.2 73% 76.63 0.0
06 09:35 Calm 16.09 Fair CLR 15.6 12.1 80% 76.66 0.0
06 09:15 Calm 16.09 Fair CLR 14.4 11.9 85% 76.66 0.0
06 08:55 Calm 16.09 Fair CLR 13 11.4 90% 76.66 0.0
06 08:35 Calm 16.09 Fair CLR 11.8 11 95% 76.63 0.0
06 08:15 Calm 16.09 Fair CLR 11.1 10.5 96% 76.63 0.0
06 07:55 Calm 16.09 Partly Cloudy SCT002 10.4 9.7 12 9 95% 76.63 0.0
06 07:35 Calm 11.27 Mostly Cloudy BKN002 9.8 9.2 96% 76.61 0.0
06 07:15 Calm 11.27 Overcast OVC002 9.8 9.2 96% 76.61 0.0
06 06:55 Calm 16.09 Mostly Cloudy BKN002 9.7 9 95% 76.61 0.0
06 06:35 Calm 16.09 Fair CLR 9.5 8.9 96% 76.61 0.0
06 06:15 Calm 11.27 Fair CLR 9.1 8.5 96% 76.58 0.0
06 05:55 Calm 4.83 Fog/Mist CLR 9.5 8.8 95% 76.58 0.0
06 05:35 Calm 16.09 Fair CLR 9.7 9.1 96% 76.56 0.0
06 05:15 Calm 16.09 Fair CLR 10 9.3 95% 76.56 0.0
06 04:55 Calm 16.09 Fair CLR 9.9 9.3 96% 76.56 0.0
06 04:35 Calm 16.09 Fair CLR 10 9.5 97% 76.53 0.0
06 04:15 Calm 16.09 Fair CLR 10.5 10 97% 76.53 0.0
06 03:55 Calm 16.09 Fair CLR 10.8 10.1 95% 76.5 0.0
06 03:35 Calm 11.27 Fair CLR 10.5 9.8 95% 76.5 0.0
06 03:15 Calm 16.09 Fair CLR 10.7 10 95% 76.5 0.0
06 02:55 Calm 16.09 Fair CLR 11 10.3 96% 76.5 0.0
06 02:35 Calm 16.09 Fair CLR 11.1 10.5 96% 76.5 0.0
06 02:15 Calm 16.09 Fair CLR 11.2 10.4 95% 76.5 0.0
06 01:55 Calm 16.09 Fair CLR 11.7 11 21.3 11.6 96% 76.5 0.0
06 01:35 Calm 11.27 Fair CLR 11.7 11 96% 76.48 0.0
06 01:15 Calm 16.09 Fair CLR 12 11.3 96% 76.45 0.0
06 00:55 Calm 16.09 Fair CLR 12.4 11.6 95% 76.45 0.0
06 00:35 Calm 16.09 Fair CLR 12.6 11.5 93% 76.45 0.0
06 00:15 Calm 16.09 Fair CLR 12.9 12 94% 76.45 0.0
05 23:55 Calm 16.09 Fair CLR 12.7 11.5 92% 76.45 0.0
05 23:35 Calm 16.09 Fair CLR 13.5 12.3 93% 76.45 0.0
05 23:15 Calm 16.09 Fair CLR 13.8 12.5 92% 76.43 0.0
05 22:55 Calm 16.09 Fair CLR 14.5 12.6 88% 76.4 0.0
05 22:35 Calm 16.09 Fair CLR 16.6 12.5 77% 76.4 0.0
05 22:15 Calm 16.09 Fair CLR 15.6 13 85% 76.4 0.0
05 21:55 Calm 16.09 Fair CLR 15.4 13.6 89% 76.4 0.0
05 21:35 Calm 16.09 Fair CLR 15.7 13.6 87% 76.38 0.0
05 21:15 Calm 16.09 Fair CLR 16.1 13.8 86% 76.38 0.0
05 20:55 Calm 16.09 Fair CLR 16.4 13.5 83% 76.35 0.0
05 20:35 Calm 16.09 Fair CLR 17 13.6 81% 76.35 0.0
05 20:15 Calm 16.09 Fair CLR 19.3 13.3 68% 76.35 0.0
05 19:55 N 6 16.09 Fair CLR 21.4 12.5 27 21.4 57% 76.35 0.0
05 19:35 N 6 16.09 Fair CLR 22.4 12.6 54% 76.33 0.0
05 19:15 NE 9 16.09 Fair CLR 23.5 12.4 50% 76.33 0.0
05 18:55 N 7 16.09 Fair CLR 24.1 13 50% 25 76.3 0.0
05 18:35 N 11 16.09 Fair CLR 24.7 12.9 48% 26 76.3 0.0
05 18:15 N 11 16.09 Fair CLR 25.5 13 46% 26 76.28 0.0
05 17:55 N 9 G 15 16.09 Fair CLR 26 12.6 43% 26 76.25 0.0
05 17:35 N 9 16.09 Fair CLR 26 13.6 46% 26 76.25 0.0
05 17:15 N 6 16.09 Partly Cloudy SCT050 26.2 12.9 44% 26 76.25 0.0
05 16:55 N 11 16.09 Partly Cloudy SCT050 26.5 13.5 45% 27 76.25 0.0
05 16:35 N 13 16.09 Partly Cloudy SCT050 26.7 12.3 41% 27 76.28 0.0
05 16:15 NE 6 16.09 Partly Cloudy SCT050 26.5 12.4 42% 27 76.25 0.0
05 15:55 NE 13 16.09 Partly Cloudy SCT050 26.4 12.3 42% 27 76.28 0.0
05 13:55 N 6 16.09 Mostly Cloudy BKN046 25.8 12.9 25.9 17.1 45% 26 76.33 0.0
05 13:35 E 6 16.09 Mostly Cloudy BKN046 25.6 12.8 45% 26 76.33 0.0
05 13:15 NE 6 16.09 Partly Cloudy SCT046 25.5 13 46% 26 76.33 0.0
05 12:55 NE 13 16.09 Fair CLR 24.8 13.5 50% 26 76.35 0.0
05 12:35 NE 6 16.09 Partly Cloudy SCT042 25 13.1 48% 26 76.35 0.0
05 12:15 Calm 16.09 Partly Cloudy SCT040 24.5 13.2 49% 26 76.35 0.0
05 11:55 E 6 16.09 Fair CLR 24.5 13.7 51% 26 76.38 0.0
05 11:35 E 7 16.09 Fair CLR 24 13.5 52% 25 76.35 0.0
05 11:15 NE 9 16.09 Fair CLR 23.4 14 56% 76.35 0.0
05 10:55 E 9 16.09 Fair CLR 23.3 14.5 58% 76.33 0.0
05 10:35 E 9 16.09 Fair CLR 22.7 15 62% 76.33 0.0
05 10:15 Calm 16.09 Fair CLR 22 15.2 65% 76.33 0.0
05 09:55 NE 6 16.09 Fair CLR 21.1 15.2 69% 76.3 0.0
05 09:35 E 7 16.09 Fair CLR 20.5 15.1 71% 76.3 0.0
05 09:15 NE 6 16.09 Fair CLR 19.7 14.8 73% 76.3 0.0
05 08:55 Calm 16.09 Fair CLR 19 14.7 76% 76.3 0.0
05 08:35 Calm 16.09 Fair CLR 18.3 14.7 80% 76.3 0.0
05 08:15 Calm 16.09 Fair CLR 17.6 15.1 85% 76.3 0.0
05 07:55 NE 6 16.09 Fair CLR 17 15.5 18.3 16.5 91% 76.3 0.0
05 07:35 Calm 16.09 Partly Cloudy SCT048 16.5 15.5 94% 76.28 0.0
05 07:15 Calm 16.09 Overcast OVC048 16.6 15.8 95% 76.28 0.0
05 06:55 Calm 16.09 Overcast OVC048 16.7 15.9 95% 76.25 0.0
05 06:35 Calm 16.09 Overcast OVC048 16.7 15.7 94% 76.25 0.0
05 06:15 Calm 16.09 Mostly Cloudy BKN050 17.1 15.8 92% 76.25 0.0
05 05:55 Calm 16.09 Mostly Cloudy BKN050 BKN060 17.1 16 93% 76.25 0.0
05 05:15 Calm 16.09 Overcast SCT046 OVC055 17.6 16.1 91% 76.2 0.0
05 04:55 Calm 16.09 Overcast SCT036 OVC055 18 16.1 89% 76.2 0.0
05 04:35 Calm 16.09 Overcast SCT036 SCT045 OVC055 17.5 16.5 94% 76.2 0.0
05 04:15 Calm 16.09 Overcast SCT029 BKN036 OVC055 17.8 16.6 93% 76.2 0.0
05 03:55 Calm 16.09 Overcast BKN029 OVC036 18 16.7 92% 76.2 0.0
05 03:35 Calm 16.09 Overcast OVC027 17.7 16.5 93% 76.2 0.0
05 03:15 Calm 16.09 Overcast OVC025 18 16.5 91% 76.2 0.0
05 02:55 Calm 16.09 Overcast OVC023 17.9 16.7 93% 76.2 0.0
05 02:15 Calm 16.09 Overcast OVC023 18 16.6 92% 76.2 0.0
05 01:55 Calm 16.09 Overcast OVC023 17.8 17 20.6 17.6 95% 76.2 0.0
05 01:15 Calm 16.09 Overcast OVC023 18 16.8 93% 76.2 0.0
05 00:55 Calm 16.09 Overcast OVC023 18.1 16.5 90% 76.2 0.0
05 00:35 Calm 16.09 Overcast OVC023 18 17 94% 76.2 0.0
05 00:15 Calm 16.09 Overcast OVC023 17.8 17 95% 76.2 0.0
04 23:55 Calm 11.27 Overcast BKN023 OVC080 17.7 16.8 95% 76.2 0.0
04 23:35 Calm 11.27 Mostly Cloudy SCT023 BKN080 17.7 16.6 93% 76.2 0.0
04 23:15 Calm 16.09 Partly Cloudy SCT080 18.1 16.8 92% 76.2 0.0
04 22:55 Calm 16.09 Partly Cloudy SCT080 18.3 17 92% 76.2 0.0
04 22:35 N 6 16.09 Mostly Cloudy BKN050 18.5 17.5 94% 76.2 0.0
04 22:15 Calm 16.09 Overcast SCT042 OVC049 19.2 17.9 92% 76.2 0.0
04 21:55 Calm 16.09 Overcast OVC040 19.4 17.9 91% 76.2 0.0
04 21:35 NE 6 16.09 Overcast SCT021 OVC040 19.7 17.7 88% 76.2 0.0
04 21:15 Calm 16.09 Overcast SCT021 OVC038 19.7 18 90% 76.2 0.0
04 20:55 Calm 16.09 Overcast OVC038 19.7 18 90% 76.17 0.0
04 20:35 E 6 16.09 Overcast OVC036 20.1 18.1 88% 76.17 0.0
04 20:15 NE 6 16.09 Overcast BKN036 OVC044 20.3 18.5 89% 76.17 0.0
04 19:55 NE 7 16.09 Overcast OVC032 20.6 19 24.7 20.6 91% 76.17 0.0
04 19:35 Calm 16.09 Overcast BKN030 OVC037 21 19.7 92% 76.15 0.0
04 19:15 Calm 16.09 Overcast BKN028 OVC037 21 19.8 93% 76.12 0.0
04 18:55 Calm 16.09 Overcast SCT028 OVC037 21.1 19.8 92% 76.12 0.0
04 18:35 Calm 8.05 Fog/Mist SCT024 OVC035 21 19.7 92% 76.1 0.0
04 18:15 E 6 4.83 Drizzle OVC022 21 19.8 93% 76.1 0.0
04 17:35 NE 7 8.05 Drizzle SCT012 OVC020 21.3 20.1 93% 76.1 0.0
04 17:15 N 6 4.83 Rain BKN017 OVC022 21.5 20 91% 76.1 0.0
04 16:55 NW 7 11.27 Rain OVC017 22.3 20 87% 76.1 0.0
04 16:35 E 7 16.09 Light Rain OVC019 23.3 19.6 80% 76.07 0.0
04 16:15 E 7 16.09 Overcast OVC019 23.7 19.5 77% 76.1 0.0
04 15:55 E 6 16.09 Overcast OVC019 23.8 19.6 77% 76.1 0.0
04 15:35 E 7 16.09 Overcast OVC019 24.1 19.6 76% 25 76.1 0.0
04 15:15 SE 7 16.09 Overcast BKN019 OVC034 24.2 19.5 75% 25 76.1 0.0
04 14:55 Calm 16.09 Overcast SCT024 BKN032 OVC044 24.6 19.6 74% 25 76.07 0.0
04 14:35 Calm 16.09 Overcast SCT019 BKN024 OVC046 24.3 19.2 73% 25 76.07 0.0
04 14:15 E 7 16.09 Overcast BKN020 OVC027 24.3 19.5 75% 25 76.1 0.0
04 13:55 Calm 16.09 Overcast OVC016 24 19.3 24 19.6 75% 25 76.1 0.0
04 13:35 Calm 16.09 Overcast OVC016 23.9 19.2 75% 25 76.12 0.0
04 13:15 Calm 16.09 Overcast OVC016 23.8 19.1 75% 76.12 0.0
04 12:55 SE 6 16.09 Overcast OVC014 24 19.2 75% 25 76.1 0.0
04 12:35 SE 7 16.09 Overcast OVC014 23.1 19.1 78% 76.12 0.0
04 12:15 SE 9 16.09 Overcast OVC012 22.5 18.9 80% 76.12 0.0
04 11:55 E 6 16.09 Overcast OVC012 21.8 18.7 83% 76.12 0.0
04 11:35 E 7 16.09 Overcast OVC012 21.2 18.6 85% 76.15 0.0
04 11:15 SE 7 16.09 Overcast OVC012 21 18.5 86% 76.17 0.0
04 10:55 Calm 16.09 Overcast OVC010 20.7 18.4 87% 76.17 0.0
04 10:35 E 7 16.09 Overcast OVC008 20.7 18.5 87% 76.17 0.0
04 10:15 E 7 16.09 Overcast OVC008 20.7 18.6 88% 76.15 0.0
04 09:55 SE 6 16.09 Overcast OVC008 20.6 18.8 89% 76.17 0.0
04 09:35 Calm 16.09 Overcast OVC008 20.6 18.9 90% 76.15 0.0
04 09:15 E 9 16.09 Overcast OVC008 20.6 19 91% 76.12 0.0
04 08:55 E 6 16.09 Overcast OVC008 20.5 18.9 91% 76.12 0.0
04 08:35 Calm 16.09 Overcast OVC008 20.1 18.6 91% 76.1 0.0
04 08:15 Calm 16.09 Overcast OVC008 19.7 18.3 92% 76.12 0.0
04 07:55 Calm 16.09 Overcast OVC008 19.7 18.2 19.8 18 91% 76.12 0.0
04 07:35 NE 9 16.09 Light Rain OVC008 19.7 18.8 95% 76.07 0.0
04 07:15 Calm 16.09 Overcast OVC008 19.5 18.6 95% 76.15 0.0
04 06:55 Calm 16.09 Overcast OVC008 19.5 18.7 95% 76.15 0.0
04 06:35 Calm 16.09 Overcast OVC008 19.1 18.4 96% 76.12 0.0
04 06:15 Calm 11.27 Overcast OVC008 19 18.2 95% 76.07 0.0
04 05:55 Calm 11.27 Overcast OVC008 18.9 18.1 95% 76.1 0.0
04 05:35 Calm 11.27 Overcast OVC008 19 18.2 95% 76.12 0.0
04 05:15 Calm 11.27 Overcast SCT008 OVC027 18.6 18 96% 76.1 0.0
04 04:55 Calm 11.27 Overcast OVC027 18.4 17.8 96% 76.1 0.0
04 04:35 Calm 8.05 Fog/Mist OVC025 18.1 17.5 96% 76.05 0.0
04 04:15 Calm 11.27 Overcast OVC025 18.3 17.6 96% 76.07 0.0
04 03:35 Calm 8.05 Fog/Mist CLR 18.1 17.4 96% 76.07 0.0
04 03:15 Calm 11.27 Partly Cloudy SCT027 SCT100 18.1 17.3 95% 76.1 0.0
04 02:55 Calm 11.27 Mostly Cloudy SCT027 BKN100 18.3 17.5 95% 76.12 0.0
04 02:35 Calm 11.27 Fair CLR 18.7 17.8 95% 76.1 0.0
04 02:15 Calm 16.09 Mostly Cloudy SCT027 SCT085 BKN110 19.1 18.2 95% 76.1 0.0
04 01:55 Calm 8.05 Fog/Mist SCT027 SCT085 BKN110 19 18.2 21.5 19 95% 76.12 0.0
04 01:35 Calm 8.05 Fog/Mist BKN027 BKN085 BKN110 19.3 18.5 95% 76.15 0.0
04 01:15 Calm 11.27 Overcast OVC027 19.5 18.6 95% 76.17 0.0
04 00:55 Calm 8.05 Fog/Mist OVC029 19.3 18.5 95% 76.17 0.0
04 00:35 Calm 8.05 Fog/Mist OVC031 19.3 18.5 95% 76.2 0.0
04 00:15 Calm 8.05 Fog/Mist OVC031 19.3 18.5 95% 76.2 0.0
03 23:55 Calm 8.05 Fog/Mist OVC031 19.2 18.5 96% 76.2 0.0
03 23:35 Calm 8.05 Fog/Mist BKN031 BKN100 19 18.2 95% 76.17 0.0
03 23:15 Calm 11.27 Partly Cloudy SCT031 SCT100 19.4 18.5 95% 76.17 0.0
03 22:55 Calm 11.27 Partly Cloudy SCT018 SCT024 SCT031 19.3 18.5 95% 76.15 0.0
03 22:35 Calm 11.27 Overcast BKN018 BKN024 OVC031 19.6 18.7 95% 76.12 0.0
03 22:15 Calm 11.27 Mostly Cloudy SCT023 BKN031 19.6 18.7 95% 76.15 0.0
03 21:55 Calm 11.27 Mostly Cloudy SCT025 BKN031 20 19 94% 76.15 0.0
03 21:35 Calm 16.09 Mostly Cloudy SCT026 BKN031 20.1 19.1 94% 76.15 0.0
03 21:15 Calm 16.09 Mostly Cloudy SCT023 BKN029 20.2 19.1 93% 76.15 0.0
03 20:55 Calm 16.09 Overcast OVC029 20.9 19.3 91% 76.12 0.0
03 20:35 Calm 16.09 Mostly Cloudy BKN029 20.7 19.5 93% 76.1 0.0
03 20:15 Calm 16.09 Partly Cloudy SCT031 21.2 19.5 90% 76.07 0.0
03 19:55 Calm 16.09 Partly Cloudy SCT034 21.7 19.5 24.4 20.5 87% 76.07 0.0
03 19:35 Calm 16.09 Overcast OVC034 22.4 19.5 84% 76.07 0.0
03 19:15 Calm 16.09 Mostly Cloudy BKN034 22.6 19.6 83% 76.07 0.0
03 18:55 Calm 16.09 Fair CLR 22.8 19.7 83% 76.05 0.0
03 18:35 Calm 16.09 Fair CLR 23.3 19.2 78% 76.05 0.0
03 18:15 Calm 16.09 Fair CLR 24.1 19.1 74% 25 76.02 0.0
03 17:55 S 6 16.09 Fair CLR 24.2 18.4 70% 25 76 0.0
03 17:35 Calm 16.09 Fair CLR 24.1 18 69% 25 76 0.0
03 17:15 NE 13 16.09 Fair CLR 24 18.4 71% 25 75.95 0.0
03 16:55 N 7 16.09 Fair CLR 23.2 18.4 75% 75.97 0.0
03 16:35 N 6 16.09 Fair CLR 22.3 19.9 86% 76 0.0
03 16:15 Calm 16.09 Partly Cloudy SCT007 22 19.4 85% 76.02 0.0
03 15:55 Calm 16.09 Partly Cloudy SCT007 SCT070 SCT085 21.6 19.3 87% 76.07 0.0
03 15:35 Calm 16.09 Mostly Cloudy SCT023 SCT029 BKN070 21.5 19.2 87% 76.07 0.0
03 15:15 Calm 6.44 Light Rain SCT027 BKN042 OVC070 21 18.9 88% 76.12 0.0
03 14:55 Calm 16.09 Overcast SCT031 OVC055 20.8 19.2 91% 76.2 0.0
03 14:35 Calm 16.09 Overcast SCT046 OVC055 21.1 19 88% 76.17 0.0
03 14:15 S 7 16.09 Light Rain BKN046 OVC055 20.6 19.2 92% 76.25 0.0
03 13:55 Calm 8.05 Heavy Rain OVC044 21.7 18.5 24.3 14.5 82% 76.23 0.0
03 13:35 Calm 16.09 Overcast OVC045 21.8 19.1 85% 76.17 0.0
03 13:15 Calm 16.09 Mostly Cloudy SCT046 BKN050 22.6 18.5 78% 76.15 0.0
03 12:55 Calm 16.09 Partly Cloudy SCT044 SCT120 23.2 17 68% 76.1 0.0
03 12:35 Calm 16.09 Mostly Cloudy SCT044 SCT070 BKN110 23.8 16.7 65% 76.07 0.0
Date Time (edt) Wind (kph) Vis. (km) Weather Sky Cond. Air Dwpt Max. Min. Relative Humidity Wind Chill (°C) Heat Index (°C) altimeter (cm) sea level (mb) 1 hr 3 hr 6 hr
6 hour
Temperature (ºC) Pressure Precipitation (cm)